sensor_id;sensor_type;location;lat;lon;timestamp;P1;durP1;ratioP1;P2;durP2;ratioP2
62724;SDS011;49026;52.600;4.694;2022-10-30T00:00:21;17.10;;;5.72;;
62724;SDS011;49026;52.600;4.694;2022-10-30T00:02:48;19.40;;;6.35;;
62724;SDS011;49026;52.600;4.694;2022-10-30T00:05:14;21.30;;;6.25;;
62724;SDS011;49026;52.600;4.694;2022-10-30T00:07:40;19.75;;;5.95;;
62724;SDS011;49026;52.600;4.694;2022-10-30T00:10:06;21.15;;;6.63;;
62724;SDS011;49026;52.600;4.694;2022-10-30T00:12:32;13.02;;;6.32;;
62724;SDS011;49026;52.600;4.694;2022-10-30T00:14:58;22.23;;;6.60;;
62724;SDS011;49026;52.600;4.694;2022-10-30T00:17:23;16.95;;;6.35;;
62724;SDS011;49026;52.600;4.694;2022-10-30T00:19:51;21.77;;;6.65;;
62724;SDS011;49026;52.600;4.694;2022-10-30T00:22:16;17.50;;;6.78;;
62724;SDS011;49026;52.600;4.694;2022-10-30T00:24:42;20.92;;;6.78;;
62724;SDS011;49026;52.600;4.694;2022-10-30T00:27:07;22.38;;;7.10;;
62724;SDS011;49026;52.600;4.694;2022-10-30T00:29:32;23.48;;;7.78;;
62724;SDS011;49026;52.600;4.694;2022-10-30T00:31:57;21.58;;;6.90;;
62724;SDS011;49026;52.600;4.694;2022-10-30T00:34:23;25.75;;;6.78;;
62724;SDS011;49026;52.600;4.694;2022-10-30T00:36:55;20.05;;;6.10;;
62724;SDS011;49026;52.600;4.694;2022-10-30T00:39:21;22.52;;;5.78;;
62724;SDS011;49026;52.600;4.694;2022-10-30T00:41:46;17.83;;;6.57;;
62724;SDS011;49026;52.600;4.694;2022-10-30T00:47:05;21.52;;;7.32;;
62724;SDS011;49026;52.600;4.694;2022-10-30T00:49:38;23.55;;;7.50;;
62724;SDS011;49026;52.600;4.694;2022-10-30T00:52:14;25.73;;;7.55;;
62724;SDS011;49026;52.600;4.694;2022-10-30T00:54:39;20.02;;;6.57;;
62724;SDS011;49026;52.600;4.694;2022-10-30T00:57:07;15.48;;;7.45;;
62724;SDS011;49026;52.600;4.694;2022-10-30T00:59:33;21.40;;;7.53;;
62724;SDS011;49026;52.600;4.694;2022-10-30T01:02:03;24.02;;;6.95;;
62724;SDS011;49026;52.600;4.694;2022-10-30T01:04:29;34.63;;;6.97;;
62724;SDS011;49026;52.600;4.694;2022-10-30T01:06:57;18.80;;;7.63;;
62724;SDS011;49026;52.600;4.694;2022-10-30T01:09:26;28.73;;;7.70;;
62724;SDS011;49026;52.600;4.694;2022-10-30T01:11:51;25.05;;;7.13;;
62724;SDS011;49026;52.600;4.694;2022-10-30T01:14:17;16.45;;;7.20;;
62724;SDS011;49026;52.600;4.694;2022-10-30T01:22:06;18.67;;;7.70;;
62724;SDS011;49026;52.600;4.694;2022-10-30T01:33:42;24.88;;;8.80;;
62724;SDS011;49026;52.600;4.694;2022-10-30T01:36:20;15.00;;;7.47;;
62724;SDS011;49026;52.600;4.694;2022-10-30T01:38:53;23.50;;;8.82;;
62724;SDS011;49026;52.600;4.694;2022-10-30T01:41:22;20.17;;;7.82;;
62724;SDS011;49026;52.600;4.694;2022-10-30T01:43:52;20.90;;;8.50;;
62724;SDS011;49026;52.600;4.694;2022-10-30T01:49:12;20.17;;;8.07;;
62724;SDS011;49026;52.600;4.694;2022-10-30T01:54:38;25.38;;;7.68;;
62724;SDS011;49026;52.600;4.694;2022-10-30T01:57:35;24.65;;;7.93;;
62724;SDS011;49026;52.600;4.694;2022-10-30T02:00:23;21.88;;;7.78;;
62724;SDS011;49026;52.600;4.694;2022-10-30T02:02:48;22.20;;;8.43;;
62724;SDS011;49026;52.600;4.694;2022-10-30T02:08:12;15.50;;;8.30;;
62724;SDS011;49026;52.600;4.694;2022-10-30T02:10:37;24.00;;;8.15;;
62724;SDS011;49026;52.600;4.694;2022-10-30T02:13:03;20.92;;;7.70;;
62724;SDS011;49026;52.600;4.694;2022-10-30T02:15:31;17.17;;;6.88;;
62724;SDS011;49026;52.600;4.694;2022-10-30T02:17:59;23.13;;;7.85;;
62724;SDS011;49026;52.600;4.694;2022-10-30T02:20:24;24.58;;;7.75;;
62724;SDS011;49026;52.600;4.694;2022-10-30T02:22:50;21.17;;;8.50;;
62724;SDS011;49026;52.600;4.694;2022-10-30T02:25:15;24.10;;;7.32;;
62724;SDS011;49026;52.600;4.694;2022-10-30T02:27:40;23.63;;;8.77;;
62724;SDS011;49026;52.600;4.694;2022-10-30T02:30:09;24.40;;;7.95;;
62724;SDS011;49026;52.600;4.694;2022-10-30T02:32:34;24.05;;;9.20;;
62724;SDS011;49026;52.600;4.694;2022-10-30T02:35:00;18.40;;;8.50;;
62724;SDS011;49026;52.600;4.694;2022-10-30T02:37:25;24.08;;;8.73;;
62724;SDS011;49026;52.600;4.694;2022-10-30T02:39:53;17.80;;;8.20;;
62724;SDS011;49026;52.600;4.694;2022-10-30T02:42:18;29.30;;;8.05;;
62724;SDS011;49026;52.600;4.694;2022-10-30T02:44:46;19.90;;;8.85;;
62724;SDS011;49026;52.600;4.694;2022-10-30T02:47:11;19.15;;;8.25;;
62724;SDS011;49026;52.600;4.694;2022-10-30T02:49:37;30.00;;;9.45;;
62724;SDS011;49026;52.600;4.694;2022-10-30T02:52:05;20.77;;;9.10;;
62724;SDS011;49026;52.600;4.694;2022-10-30T02:54:33;20.60;;;9.05;;
62724;SDS011;49026;52.600;4.694;2022-10-30T02:56:59;24.13;;;9.23;;
62724;SDS011;49026;52.600;4.694;2022-10-30T02:59:24;29.25;;;10.25;;
62724;SDS011;49026;52.600;4.694;2022-10-30T03:01:50;17.05;;;9.07;;
62724;SDS011;49026;52.600;4.694;2022-10-30T03:04:17;25.90;;;9.73;;
62724;SDS011;49026;52.600;4.694;2022-10-30T03:06:42;32.88;;;9.32;;
62724;SDS011;49026;52.600;4.694;2022-10-30T03:09:10;19.95;;;10.30;;
62724;SDS011;49026;52.600;4.694;2022-10-30T03:11:35;28.17;;;10.52;;
62724;SDS011;49026;52.600;4.694;2022-10-30T03:14:00;24.67;;;9.98;;
62724;SDS011;49026;52.600;4.694;2022-10-30T03:16:26;34.30;;;10.55;;
62724;SDS011;49026;52.600;4.694;2022-10-30T03:21:24;23.23;;;8.65;;
62724;SDS011;49026;52.600;4.694;2022-10-30T03:23:51;27.52;;;9.70;;
62724;SDS011;49026;52.600;4.694;2022-10-30T03:26:17;22.40;;;10.13;;
62724;SDS011;49026;52.600;4.694;2022-10-30T03:28:45;23.17;;;8.67;;
62724;SDS011;49026;52.600;4.694;2022-10-30T03:31:15;29.48;;;9.82;;
62724;SDS011;49026;52.600;4.694;2022-10-30T03:33:42;27.42;;;10.52;;
62724;SDS011;49026;52.600;4.694;2022-10-30T03:36:08;25.73;;;10.23;;
62724;SDS011;49026;52.600;4.694;2022-10-30T03:38:35;28.17;;;8.98;;
62724;SDS011;49026;52.600;4.694;2022-10-30T03:41:00;23.42;;;10.23;;
62724;SDS011;49026;52.600;4.694;2022-10-30T03:43:26;24.00;;;9.75;;
62724;SDS011;49026;52.600;4.694;2022-10-30T03:45:52;29.05;;;9.82;;
62724;SDS011;49026;52.600;4.694;2022-10-30T03:48:19;24.92;;;9.90;;
62724;SDS011;49026;52.600;4.694;2022-10-30T03:53:18;18.13;;;8.98;;
62724;SDS011;49026;52.600;4.694;2022-10-30T03:55:50;22.65;;;9.73;;
62724;SDS011;49026;52.600;4.694;2022-10-30T03:58:16;32.33;;;10.63;;
62724;SDS011;49026;52.600;4.694;2022-10-30T04:00:42;24.13;;;10.07;;
62724;SDS011;49026;52.600;4.694;2022-10-30T04:03:10;22.33;;;9.40;;
62724;SDS011;49026;52.600;4.694;2022-10-30T04:05:35;20.88;;;10.65;;
62724;SDS011;49026;52.600;4.694;2022-10-30T04:08:02;25.40;;;9.57;;
62724;SDS011;49026;52.600;4.694;2022-10-30T04:10:32;23.40;;;10.70;;
62724;SDS011;49026;52.600;4.694;2022-10-30T04:13:01;23.08;;;10.27;;
62724;SDS011;49026;52.600;4.694;2022-10-30T04:15:31;26.23;;;10.10;;
62724;SDS011;49026;52.600;4.694;2022-10-30T04:17:57;29.10;;;11.00;;
62724;SDS011;49026;52.600;4.694;2022-10-30T04:20:22;22.42;;;10.02;;
62724;SDS011;49026;52.600;4.694;2022-10-30T04:22:53;23.13;;;10.55;;
62724;SDS011;49026;52.600;4.694;2022-10-30T04:25:20;31.80;;;10.70;;
62724;SDS011;49026;52.600;4.694;2022-10-30T04:27:45;25.05;;;10.82;;
62724;SDS011;49026;52.600;4.694;2022-10-30T04:30:11;24.30;;;11.00;;
62724;SDS011;49026;52.600;4.694;2022-10-30T04:32:55;34.28;;;11.32;;
62724;SDS011;49026;52.600;4.694;2022-10-30T04:35:22;20.27;;;10.00;;
62724;SDS011;49026;52.600;4.694;2022-10-30T04:37:53;20.48;;;10.52;;
62724;SDS011;49026;52.600;4.694;2022-10-30T04:40:21;41.95;;;11.45;;
62724;SDS011;49026;52.600;4.694;2022-10-30T04:42:47;32.03;;;12.77;;
62724;SDS011;49026;52.600;4.694;2022-10-30T04:45:13;31.85;;;13.63;;
62724;SDS011;49026;52.600;4.694;2022-10-30T04:47:38;19.98;;;11.75;;
62724;SDS011;49026;52.600;4.694;2022-10-30T04:50:04;25.48;;;11.20;;
62724;SDS011;49026;52.600;4.694;2022-10-30T04:52:30;33.05;;;12.32;;
62724;SDS011;49026;52.600;4.694;2022-10-30T04:54:57;24.92;;;12.00;;
62724;SDS011;49026;52.600;4.694;2022-10-30T04:57:23;31.63;;;11.77;;
62724;SDS011;49026;52.600;4.694;2022-10-30T04:59:48;29.58;;;11.98;;
62724;SDS011;49026;52.600;4.694;2022-10-30T05:02:13;29.55;;;11.52;;
62724;SDS011;49026;52.600;4.694;2022-10-30T05:04:38;37.55;;;13.45;;
62724;SDS011;49026;52.600;4.694;2022-10-30T05:07:04;22.83;;;12.38;;
62724;SDS011;49026;52.600;4.694;2022-10-30T05:09:32;32.80;;;11.63;;
62724;SDS011;49026;52.600;4.694;2022-10-30T05:11:57;27.17;;;12.25;;
62724;SDS011;49026;52.600;4.694;2022-10-30T05:14:22;26.42;;;12.10;;
62724;SDS011;49026;52.600;4.694;2022-10-30T05:16:48;28.60;;;11.90;;
62724;SDS011;49026;52.600;4.694;2022-10-30T05:19:13;24.58;;;11.55;;
62724;SDS011;49026;52.600;4.694;2022-10-30T05:21:38;34.13;;;13.13;;
62724;SDS011;49026;52.600;4.694;2022-10-30T05:24:04;35.72;;;13.80;;
62724;SDS011;49026;52.600;4.694;2022-10-30T05:26:29;30.08;;;12.82;;
62724;SDS011;49026;52.600;4.694;2022-10-30T05:28:54;30.30;;;13.27;;
62724;SDS011;49026;52.600;4.694;2022-10-30T05:31:20;29.17;;;13.48;;
62724;SDS011;49026;52.600;4.694;2022-10-30T05:33:45;29.98;;;13.45;;
62724;SDS011;49026;52.600;4.694;2022-10-30T05:36:10;26.17;;;11.80;;
62724;SDS011;49026;52.600;4.694;2022-10-30T05:38:35;29.95;;;14.00;;
62724;SDS011;49026;52.600;4.694;2022-10-30T05:41:01;41.90;;;14.80;;
62724;SDS011;49026;52.600;4.694;2022-10-30T05:43:26;34.25;;;13.63;;
62724;SDS011;49026;52.600;4.694;2022-10-30T05:45:51;28.52;;;12.38;;
62724;SDS011;49026;52.600;4.694;2022-10-30T05:48:17;33.05;;;13.63;;
62724;SDS011;49026;52.600;4.694;2022-10-30T05:50:42;32.40;;;14.02;;
62724;SDS011;49026;52.600;4.694;2022-10-30T05:53:08;34.30;;;14.55;;
62724;SDS011;49026;52.600;4.694;2022-10-30T05:55:36;37.03;;;13.43;;
62724;SDS011;49026;52.600;4.694;2022-10-30T05:58:04;31.25;;;13.75;;
62724;SDS011;49026;52.600;4.694;2022-10-30T06:00:31;35.13;;;15.18;;
62724;SDS011;49026;52.600;4.694;2022-10-30T06:03:03;34.10;;;13.88;;
62724;SDS011;49026;52.600;4.694;2022-10-30T06:05:33;35.95;;;15.32;;
62724;SDS011;49026;52.600;4.694;2022-10-30T06:08:00;31.17;;;14.45;;
62724;SDS011;49026;52.600;4.694;2022-10-30T06:10:26;46.40;;;13.95;;
62724;SDS011;49026;52.600;4.694;2022-10-30T06:12:56;31.45;;;15.63;;
62724;SDS011;49026;52.600;4.694;2022-10-30T06:15:25;37.33;;;15.00;;
62724;SDS011;49026;52.600;4.694;2022-10-30T06:17:54;32.05;;;12.77;;
62724;SDS011;49026;52.600;4.694;2022-10-30T06:20:21;29.00;;;13.32;;
62724;SDS011;49026;52.600;4.694;2022-10-30T06:22:58;37.90;;;14.40;;
62724;SDS011;49026;52.600;4.694;2022-10-30T06:25:24;31.95;;;13.27;;
62724;SDS011;49026;52.600;4.694;2022-10-30T06:27:50;22.83;;;12.18;;
62724;SDS011;49026;52.600;4.694;2022-10-30T06:30:16;29.27;;;13.38;;
62724;SDS011;49026;52.600;4.694;2022-10-30T06:32:42;41.97;;;14.48;;
62724;SDS011;49026;52.600;4.694;2022-10-30T06:35:07;33.35;;;12.85;;
62724;SDS011;49026;52.600;4.694;2022-10-30T06:37:32;28.63;;;12.60;;
62724;SDS011;49026;52.600;4.694;2022-10-30T06:39:58;30.15;;;13.73;;
62724;SDS011;49026;52.600;4.694;2022-10-30T06:42:28;25.23;;;12.00;;
62724;SDS011;49026;52.600;4.694;2022-10-30T06:44:53;31.95;;;12.02;;
62724;SDS011;49026;52.600;4.694;2022-10-30T06:47:18;29.30;;;12.20;;
62724;SDS011;49026;52.600;4.694;2022-10-30T06:49:46;22.80;;;11.23;;
62724;SDS011;49026;52.600;4.694;2022-10-30T06:52:14;22.05;;;11.40;;
62724;SDS011;49026;52.600;4.694;2022-10-30T06:54:39;24.80;;;10.35;;
62724;SDS011;49026;52.600;4.694;2022-10-30T06:57:04;23.67;;;11.10;;
62724;SDS011;49026;52.600;4.694;2022-10-30T06:59:29;23.52;;;12.85;;
62724;SDS011;49026;52.600;4.694;2022-10-30T07:02:00;33.45;;;12.15;;
62724;SDS011;49026;52.600;4.694;2022-10-30T07:04:27;23.52;;;11.40;;
62724;SDS011;49026;52.600;4.694;2022-10-30T07:06:52;23.85;;;12.38;;
62724;SDS011;49026;52.600;4.694;2022-10-30T07:09:18;28.40;;;13.10;;
62724;SDS011;49026;52.600;4.694;2022-10-30T07:11:43;25.58;;;10.38;;
62724;SDS011;49026;52.600;4.694;2022-10-30T07:14:10;22.90;;;10.13;;
62724;SDS011;49026;52.600;4.694;2022-10-30T07:16:36;28.10;;;11.45;;
62724;SDS011;49026;52.600;4.694;2022-10-30T07:19:01;23.00;;;10.35;;
62724;SDS011;49026;52.600;4.694;2022-10-30T07:21:28;24.20;;;11.07;;
62724;SDS011;49026;52.600;4.694;2022-10-30T07:23:54;25.42;;;11.23;;
62724;SDS011;49026;52.600;4.694;2022-10-30T07:26:19;19.25;;;10.23;;
62724;SDS011;49026;52.600;4.694;2022-10-30T07:28:45;19.77;;;11.48;;
62724;SDS011;49026;52.600;4.694;2022-10-30T07:31:12;22.30;;;9.43;;
62724;SDS011;49026;52.600;4.694;2022-10-30T07:33:40;17.90;;;10.10;;
62724;SDS011;49026;52.600;4.694;2022-10-30T07:36:05;22.73;;;10.57;;
62724;SDS011;49026;52.600;4.694;2022-10-30T07:38:31;28.40;;;9.90;;
62724;SDS011;49026;52.600;4.694;2022-10-30T07:40:56;19.33;;;9.63;;
62724;SDS011;49026;52.600;4.694;2022-10-30T07:43:23;20.08;;;9.52;;
62724;SDS011;49026;52.600;4.694;2022-10-30T07:45:48;18.52;;;9.10;;
62724;SDS011;49026;52.600;4.694;2022-10-30T07:48:16;18.83;;;9.32;;
62724;SDS011;49026;52.600;4.694;2022-10-30T07:50:41;25.92;;;9.40;;
62724;SDS011;49026;52.600;4.694;2022-10-30T07:53:07;20.00;;;8.95;;
62724;SDS011;49026;52.600;4.694;2022-10-30T07:55:32;19.20;;;8.70;;
62724;SDS011;49026;52.600;4.694;2022-10-30T07:57:57;22.20;;;10.02;;
62724;SDS011;49026;52.600;4.694;2022-10-30T08:00:25;19.85;;;8.30;;
62724;SDS011;49026;52.600;4.694;2022-10-30T08:02:51;18.35;;;9.15;;
62724;SDS011;49026;52.600;4.694;2022-10-30T08:05:22;23.35;;;7.43;;
62724;SDS011;49026;52.600;4.694;2022-10-30T08:07:48;18.48;;;7.70;;
62724;SDS011;49026;52.600;4.694;2022-10-30T08:10:13;20.10;;;8.68;;
62724;SDS011;49026;52.600;4.694;2022-10-30T08:12:39;17.63;;;7.90;;
62724;SDS011;49026;52.600;4.694;2022-10-30T08:15:07;20.48;;;8.20;;
62724;SDS011;49026;52.600;4.694;2022-10-30T08:17:39;21.17;;;8.82;;
62724;SDS011;49026;52.600;4.694;2022-10-30T08:20:06;19.08;;;8.38;;
62724;SDS011;49026;52.600;4.694;2022-10-30T08:22:34;16.88;;;8.30;;
62724;SDS011;49026;52.600;4.694;2022-10-30T08:25:09;18.83;;;7.88;;
62724;SDS011;49026;52.600;4.694;2022-10-30T08:27:34;27.95;;;8.30;;
62724;SDS011;49026;52.600;4.694;2022-10-30T08:30:02;12.93;;;7.28;;
62724;SDS011;49026;52.600;4.694;2022-10-30T08:32:28;21.15;;;8.27;;
62724;SDS011;49026;52.600;4.694;2022-10-30T08:34:53;13.50;;;7.93;;
62724;SDS011;49026;52.600;4.694;2022-10-30T08:37:18;16.88;;;7.50;;
62724;SDS011;49026;52.600;4.694;2022-10-30T08:39:43;21.02;;;8.05;;
62724;SDS011;49026;52.600;4.694;2022-10-30T08:42:09;18.80;;;7.93;;
62724;SDS011;49026;52.600;4.694;2022-10-30T08:44:34;21.25;;;8.13;;
62724;SDS011;49026;52.600;4.694;2022-10-30T08:46:59;17.73;;;7.97;;
62724;SDS011;49026;52.600;4.694;2022-10-30T08:49:24;14.63;;;7.68;;
62724;SDS011;49026;52.600;4.694;2022-10-30T08:51:50;18.65;;;7.78;;
62724;SDS011;49026;52.600;4.694;2022-10-30T08:54:15;18.83;;;7.13;;
62724;SDS011;49026;52.600;4.694;2022-10-30T08:56:45;19.73;;;6.65;;
62724;SDS011;49026;52.600;4.694;2022-10-30T08:59:11;26.52;;;7.20;;
62724;SDS011;49026;52.600;4.694;2022-10-30T09:01:36;17.38;;;7.07;;
62724;SDS011;49026;52.600;4.694;2022-10-30T09:04:01;17.30;;;7.53;;
62724;SDS011;49026;52.600;4.694;2022-10-30T09:06:27;22.02;;;7.15;;
62724;SDS011;49026;52.600;4.694;2022-10-30T09:08:52;19.77;;;8.13;;
62724;SDS011;49026;52.600;4.694;2022-10-30T09:11:17;16.60;;;7.10;;
62724;SDS011;49026;52.600;4.694;2022-10-30T09:13:42;20.88;;;7.47;;
62724;SDS011;49026;52.600;4.694;2022-10-30T09:16:08;15.65;;;7.50;;
62724;SDS011;49026;52.600;4.694;2022-10-30T09:18:35;27.58;;;8.77;;
62724;SDS011;49026;52.600;4.694;2022-10-30T09:21:01;17.42;;;6.72;;
62724;SDS011;49026;52.600;4.694;2022-10-30T09:23:29;19.17;;;8.65;;
62724;SDS011;49026;52.600;4.694;2022-10-30T09:25:56;23.08;;;7.82;;
62724;SDS011;49026;52.600;4.694;2022-10-30T09:28:22;17.35;;;6.68;;
62724;SDS011;49026;52.600;4.694;2022-10-30T09:30:47;20.15;;;7.80;;
62724;SDS011;49026;52.600;4.694;2022-10-30T09:33:16;25.80;;;7.50;;
62724;SDS011;49026;52.600;4.694;2022-10-30T09:35:42;22.40;;;8.10;;
62724;SDS011;49026;52.600;4.694;2022-10-30T09:38:07;17.92;;;7.50;;
62724;SDS011;49026;52.600;4.694;2022-10-30T09:43:43;21.27;;;7.55;;
62724;SDS011;49026;52.600;4.694;2022-10-30T09:49:00;18.00;;;7.13;;
62724;SDS011;49026;52.600;4.694;2022-10-30T09:54:26;20.98;;;8.82;;
62724;SDS011;49026;52.600;4.694;2022-10-30T10:00:15;15.00;;;7.43;;
62724;SDS011;49026;52.600;4.694;2022-10-30T10:05:37;13.70;;;7.03;;
62724;SDS011;49026;52.600;4.694;2022-10-30T10:08:05;20.17;;;7.40;;
62724;SDS011;49026;52.600;4.694;2022-10-30T10:10:38;19.40;;;7.00;;
62724;SDS011;49026;52.600;4.694;2022-10-30T10:13:09;13.52;;;6.75;;
62724;SDS011;49026;52.600;4.694;2022-10-30T10:15:51;17.60;;;6.53;;
62724;SDS011;49026;52.600;4.694;2022-10-30T10:19:07;23.15;;;7.35;;
62724;SDS011;49026;52.600;4.694;2022-10-30T10:21:23;18.77;;;7.30;;
62724;SDS011;49026;52.600;4.694;2022-10-30T10:23:51;23.60;;;6.95;;
62724;SDS011;49026;52.600;4.694;2022-10-30T10:26:46;14.65;;;6.28;;
62724;SDS011;49026;52.600;4.694;2022-10-30T10:34:33;16.42;;;5.90;;
62724;SDS011;49026;52.600;4.694;2022-10-30T10:37:12;14.32;;;6.35;;
62724;SDS011;49026;52.600;4.694;2022-10-30T10:50:17;16.48;;;5.90;;
62724;SDS011;49026;52.600;4.694;2022-10-30T10:53:09;15.77;;;6.18;;
62724;SDS011;49026;52.600;4.694;2022-10-30T10:55:39;18.25;;;5.97;;
62724;SDS011;49026;52.600;4.694;2022-10-30T11:00:49;16.85;;;6.65;;
62724;SDS011;49026;52.600;4.694;2022-10-30T11:05:58;15.13;;;5.53;;
62724;SDS011;49026;52.600;4.694;2022-10-30T11:08:36;15.45;;;6.45;;
62724;SDS011;49026;52.600;4.694;2022-10-30T11:11:02;13.77;;;6.07;;
62724;SDS011;49026;52.600;4.694;2022-10-30T11:13:33;12.63;;;6.00;;
62724;SDS011;49026;52.600;4.694;2022-10-30T11:18:40;13.43;;;6.22;;
62724;SDS011;49026;52.600;4.694;2022-10-30T11:21:08;18.67;;;5.80;;
62724;SDS011;49026;52.600;4.694;2022-10-30T11:23:38;14.50;;;6.22;;
62724;SDS011;49026;52.600;4.694;2022-10-30T11:28:47;19.23;;;6.03;;
62724;SDS011;49026;52.600;4.694;2022-10-30T11:33:51;18.33;;;6.63;;
62724;SDS011;49026;52.600;4.694;2022-10-30T11:36:20;16.73;;;6.63;;
62724;SDS011;49026;52.600;4.694;2022-10-30T11:41:12;13.03;;;6.13;;
62724;SDS011;49026;52.600;4.694;2022-10-30T11:43:41;22.02;;;7.20;;
62724;SDS011;49026;52.600;4.694;2022-10-30T11:46:11;19.17;;;7.50;;
62724;SDS011;49026;52.600;4.694;2022-10-30T11:48:45;20.42;;;7.13;;
62724;SDS011;49026;52.600;4.694;2022-10-30T11:51:16;19.13;;;7.70;;
62724;SDS011;49026;52.600;4.694;2022-10-30T11:53:58;20.30;;;7.32;;
62724;SDS011;49026;52.600;4.694;2022-10-30T11:56:24;16.58;;;7.30;;
62724;SDS011;49026;52.600;4.694;2022-10-30T11:58:51;15.45;;;6.50;;
62724;SDS011;49026;52.600;4.694;2022-10-30T12:01:23;22.58;;;7.18;;
62724;SDS011;49026;52.600;4.694;2022-10-30T12:06:26;16.67;;;6.85;;
62724;SDS011;49026;52.600;4.694;2022-10-30T12:11:47;16.45;;;6.32;;
62724;SDS011;49026;52.600;4.694;2022-10-30T12:14:22;17.38;;;6.53;;
62724;SDS011;49026;52.600;4.694;2022-10-30T12:16:51;19.38;;;6.72;;
62724;SDS011;49026;52.600;4.694;2022-10-30T12:19:20;23.53;;;7.77;;
62724;SDS011;49026;52.600;4.694;2022-10-30T12:21:48;17.30;;;7.72;;
62724;SDS011;49026;52.600;4.694;2022-10-30T12:24:51;17.67;;;7.50;;
62724;SDS011;49026;52.600;4.694;2022-10-30T12:27:10;19.90;;;7.72;;
62724;SDS011;49026;52.600;4.694;2022-10-30T12:29:42;16.50;;;7.10;;
62724;SDS011;49026;52.600;4.694;2022-10-30T12:32:12;20.45;;;8.75;;
62724;SDS011;49026;52.600;4.694;2022-10-30T12:34:42;22.42;;;7.95;;
62724;SDS011;49026;52.600;4.694;2022-10-30T12:37:20;22.35;;;8.10;;
62724;SDS011;49026;52.600;4.694;2022-10-30T12:39:56;17.95;;;7.72;;
62724;SDS011;49026;52.600;4.694;2022-10-30T12:42:27;25.15;;;8.00;;
62724;SDS011;49026;52.600;4.694;2022-10-30T12:47:54;17.80;;;8.40;;
62724;SDS011;49026;52.600;4.694;2022-10-30T12:50:26;18.10;;;8.40;;
62724;SDS011;49026;52.600;4.694;2022-10-30T12:53:07;18.40;;;7.95;;
62724;SDS011;49026;52.600;4.694;2022-10-30T12:56:09;16.30;;;8.15;;
62724;SDS011;49026;52.600;4.694;2022-10-30T13:01:50;23.27;;;8.20;;
62724;SDS011;49026;52.600;4.694;2022-10-30T13:04:25;22.45;;;7.53;;
62724;SDS011;49026;52.600;4.694;2022-10-30T13:07:17;18.65;;;7.53;;
62724;SDS011;49026;52.600;4.694;2022-10-30T13:09:55;23.70;;;7.60;;
62724;SDS011;49026;52.600;4.694;2022-10-30T13:12:31;20.13;;;7.40;;
62724;SDS011;49026;52.600;4.694;2022-10-30T13:17:31;21.98;;;8.05;;
62724;SDS011;49026;52.600;4.694;2022-10-30T13:19:59;22.80;;;8.02;;
62724;SDS011;49026;52.600;4.694;2022-10-30T13:22:37;21.95;;;7.28;;
62724;SDS011;49026;52.600;4.694;2022-10-30T13:28:37;16.60;;;7.50;;
62724;SDS011;49026;52.600;4.694;2022-10-30T13:33:58;16.90;;;7.25;;
62724;SDS011;49026;52.600;4.694;2022-10-30T13:36:43;20.00;;;8.10;;
62724;SDS011;49026;52.600;4.694;2022-10-30T13:49:47;24.88;;;7.63;;
62724;SDS011;49026;52.600;4.694;2022-10-30T13:52:35;15.80;;;6.63;;
62724;SDS011;49026;52.600;4.694;2022-10-30T13:55:06;21.13;;;7.28;;
62724;SDS011;49026;52.600;4.694;2022-10-30T13:57:49;16.65;;;7.20;;
62724;SDS011;49026;52.600;4.694;2022-10-30T14:00:48;14.68;;;7.00;;
62724;SDS011;49026;52.600;4.694;2022-10-30T14:15:31;21.15;;;7.88;;
62724;SDS011;49026;52.600;4.694;2022-10-30T14:20:39;17.95;;;7.03;;
62724;SDS011;49026;52.600;4.694;2022-10-30T14:23:13;21.08;;;7.53;;
62724;SDS011;49026;52.600;4.694;2022-10-30T14:28:31;21.50;;;7.40;;
62724;SDS011;49026;52.600;4.694;2022-10-30T14:31:02;18.08;;;6.60;;
62724;SDS011;49026;52.600;4.694;2022-10-30T14:33:53;15.82;;;7.43;;
62724;SDS011;49026;52.600;4.694;2022-10-30T14:36:22;25.10;;;7.90;;
62724;SDS011;49026;52.600;4.694;2022-10-30T14:38:51;14.85;;;7.30;;
62724;SDS011;49026;52.600;4.694;2022-10-30T14:41:22;19.08;;;8.98;;
62724;SDS011;49026;52.600;4.694;2022-10-30T14:43:54;24.90;;;9.30;;
62724;SDS011;49026;52.600;4.694;2022-10-30T14:49:36;22.95;;;9.75;;
62724;SDS011;49026;52.600;4.694;2022-10-30T14:52:16;25.80;;;9.35;;
62724;SDS011;49026;52.600;4.694;2022-10-30T14:57:21;20.45;;;9.80;;
62724;SDS011;49026;52.600;4.694;2022-10-30T15:04:59;25.15;;;9.75;;
62724;SDS011;49026;52.600;4.694;2022-10-30T15:15:42;22.80;;;9.93;;
62724;SDS011;49026;52.600;4.694;2022-10-30T15:18:14;17.30;;;9.85;;
62724;SDS011;49026;52.600;4.694;2022-10-30T15:20:42;23.75;;;10.68;;
62724;SDS011;49026;52.600;4.694;2022-10-30T15:26:06;24.45;;;9.60;;
62724;SDS011;49026;52.600;4.694;2022-10-30T15:28:42;22.40;;;9.15;;
62724;SDS011;49026;52.600;4.694;2022-10-30T15:33:41;22.73;;;10.40;;
62724;SDS011;49026;52.600;4.694;2022-10-30T15:36:20;30.08;;;9.63;;
62724;SDS011;49026;52.600;4.694;2022-10-30T15:39:03;23.58;;;9.45;;
62724;SDS011;49026;52.600;4.694;2022-10-30T15:41:40;23.58;;;10.15;;
62724;SDS011;49026;52.600;4.694;2022-10-30T15:44:09;20.77;;;9.32;;
62724;SDS011;49026;52.600;4.694;2022-10-30T15:46:36;21.10;;;8.70;;
62724;SDS011;49026;52.600;4.694;2022-10-30T15:49:02;20.92;;;8.07;;
62724;SDS011;49026;52.600;4.694;2022-10-30T15:51:30;22.50;;;8.20;;
62724;SDS011;49026;52.600;4.694;2022-10-30T15:53:59;18.52;;;8.00;;
62724;SDS011;49026;52.600;4.694;2022-10-30T15:56:32;19.10;;;7.13;;
62724;SDS011;49026;52.600;4.694;2022-10-30T15:59:02;17.17;;;7.45;;
62724;SDS011;49026;52.600;4.694;2022-10-30T16:01:32;21.20;;;8.55;;
62724;SDS011;49026;52.600;4.694;2022-10-30T16:03:58;20.60;;;7.88;;
62724;SDS011;49026;52.600;4.694;2022-10-30T16:06:28;20.70;;;7.05;;
62724;SDS011;49026;52.600;4.694;2022-10-30T16:08:57;24.23;;;7.38;;
62724;SDS011;49026;52.600;4.694;2022-10-30T16:11:23;18.25;;;7.40;;
62724;SDS011;49026;52.600;4.694;2022-10-30T16:13:50;18.70;;;7.22;;
62724;SDS011;49026;52.600;4.694;2022-10-30T16:16:18;19.98;;;7.10;;
62724;SDS011;49026;52.600;4.694;2022-10-30T16:18:48;28.05;;;7.90;;
62724;SDS011;49026;52.600;4.694;2022-10-30T16:21:15;18.40;;;7.82;;
62724;SDS011;49026;52.600;4.694;2022-10-30T16:23:52;19.73;;;6.97;;
62724;SDS011;49026;52.600;4.694;2022-10-30T16:26:27;21.63;;;7.63;;
62724;SDS011;49026;52.600;4.694;2022-10-30T16:29:00;16.35;;;6.82;;
62724;SDS011;49026;52.600;4.694;2022-10-30T16:31:41;22.67;;;6.57;;
62724;SDS011;49026;52.600;4.694;2022-10-30T16:34:09;22.45;;;6.30;;
62724;SDS011;49026;52.600;4.694;2022-10-30T16:36:49;22.92;;;6.32;;
62724;SDS011;49026;52.600;4.694;2022-10-30T16:39:15;13.20;;;5.60;;
62724;SDS011;49026;52.600;4.694;2022-10-30T16:41:45;17.45;;;6.93;;
62724;SDS011;49026;52.600;4.694;2022-10-30T16:46:39;26.60;;;6.78;;
62724;SDS011;49026;52.600;4.694;2022-10-30T16:49:13;22.17;;;6.85;;
62724;SDS011;49026;52.600;4.694;2022-10-30T16:51:42;11.63;;;6.68;;
62724;SDS011;49026;52.600;4.694;2022-10-30T16:54:18;18.20;;;6.50;;
62724;SDS011;49026;52.600;4.694;2022-10-30T16:56:45;22.38;;;7.47;;
62724;SDS011;49026;52.600;4.694;2022-10-30T16:59:14;23.25;;;6.60;;
62724;SDS011;49026;52.600;4.694;2022-10-30T17:01:54;20.85;;;6.88;;
62724;SDS011;49026;52.600;4.694;2022-10-30T17:04:29;28.20;;;7.13;;
62724;SDS011;49026;52.600;4.694;2022-10-30T17:07:06;252.23;;;23.10;;
62724;SDS011;49026;52.600;4.694;2022-10-30T17:09:41;17.05;;;6.85;;
62724;SDS011;49026;52.600;4.694;2022-10-30T17:14:45;20.50;;;7.80;;
62724;SDS011;49026;52.600;4.694;2022-10-30T17:22:35;20.58;;;7.95;;